Time;durP1;ratioP1;P1;durP2;ratioP2;P2;SDS_P1;SDS_P2;PMS_P1;PMS_P2;Temp;Humidity;BMP_temperature;BMP_pressure;BME280_temperature;BME280_humidity;BME280_pressure;Samples;Min_cycle;Max_cycle;Signal;HPM_P1;HPM_P2
2023/08/01 00:00:45;;;;;;;8.20;2.75;;;;;;;;;;5103741;28;20265;-44
2023/08/01 00:03:13;;;;;;;8.50;3.47;;;;;;;;;;5101718;28;20012;-44
2023/08/01 00:05:38;;;;;;;8.45;3.28;;;;;;;;;;5093183;28;20337;-45
2023/08/01 00:08:03;;;;;;;6.20;3.10;;;;;;;;;;5105899;28;20550;-44
2023/08/01 00:10:29;;;;;;;13.53;3.50;;;;;;;;;;5104714;28;20542;-44
2023/08/01 00:12:54;;;;;;;11.13;3.40;;;;;;;;;;5102790;28;20270;-44
2023/08/01 00:15:19;;;;;;;7.57;3.20;;;;;;;;;;5094464;28;20600;-44
2023/08/01 00:17:44;;;;;;;5.43;3.03;;;;;;;;;;5107257;28;20368;-44
2023/08/01 00:20:10;;;;;;;8.63;4.00;;;;;;;;;;5103650;28;20028;-44
2023/08/01 00:22:35;;;;;;;8.85;3.38;;;;;;;;;;5102162;28;20413;-45
2023/08/01 00:25:00;;;;;;;6.53;3.03;;;;;;;;;;5102858;28;20024;-44
2023/08/01 00:27:26;;;;;;;7.82;3.17;;;;;;;;;;5101674;28;20293;-44
2023/08/01 00:29:51;;;;;;;9.20;3.80;;;;;;;;;;5102367;28;20054;-44
2023/08/01 00:32:16;;;;;;;9.03;2.97;;;;;;;;;;5101259;28;20019;-44
2023/08/01 00:34:42;;;;;;;11.57;3.80;;;;;;;;;;5098090;28;20054;-44
2023/08/01 00:37:07;;;;;;;5.43;3.30;;;;;;;;;;5101699;28;20704;-44
2023/08/01 00:39:32;;;;;;;7.90;3.80;;;;;;;;;;5102054;28;20023;-44
2023/08/01 00:41:58;;;;;;;6.38;3.45;;;;;;;;;;5102167;28;20107;-44
2023/08/01 00:44:23;;;;;;;8.23;3.25;;;;;;;;;;5100472;28;20042;-44
2023/08/01 00:46:51;;;;;;;7.07;3.07;;;;;;;;;;5101501;28;20055;-44
2023/08/01 00:49:17;;;;;;;8.88;3.80;;;;;;;;;;5100938;28;20023;-45
2023/08/01 00:51:42;;;;;;;11.38;3.42;;;;;;;;;;5100883;28;20112;-44
2023/08/01 00:54:07;;;;;;;7.00;3.03;;;;;;;;;;5108168;27;20027;-45
2023/08/01 00:56:33;;;;;;;8.20;3.70;;;;;;;;;;5107793;27;20031;-44
2023/08/01 00:58:58;;;;;;;5.65;3.42;;;;;;;;;;5107475;27;20026;-44
2023/08/01 01:01:23;;;;;;;7.67;3.67;;;;;;;;;;5106375;27;20027;-44
2023/08/01 01:03:50;;;;;;;6.63;3.50;;;;;;;;;;5107343;27;20797;-44
2023/08/01 01:06:50;;;;;;;7.72;3.90;;;;;;;;;;5106007;27;20047;-44
2023/08/01 01:09:16;;;;;;;9.60;3.60;;;;;;;;;;5016934;28;20029;-44
2023/08/01 01:11:41;;;;;;;7.28;3.72;;;;;;;;;;5089404;27;20502;-44
2023/08/01 01:14:07;;;;;;;6.45;3.45;;;;;;;;;;5108243;27;20038;-44
2023/08/01 01:16:32;;;;;;;8.93;3.77;;;;;;;;;;5109936;27;20024;-45
2023/08/01 01:18:57;;;;;;;11.63;4.20;;;;;;;;;;5111521;27;20130;-45
2023/08/01 01:24:20;;;;;;;8.75;4.03;;;;;;;;;;5103232;27;20543;-44
2023/08/01 01:26:45;;;;;;;8.52;3.67;;;;;;;;;;5106121;27;20024;-45
2023/08/01 01:29:11;;;;;;;8.98;3.72;;;;;;;;;;5109376;27;20027;-44
2023/08/01 01:31:37;;;;;;;7.00;3.42;;;;;;;;;;5105618;27;20147;-45
2023/08/01 01:34:02;;;;;;;11.23;3.78;;;;;;;;;;5108019;27;20493;-44
2023/08/01 01:36:29;;;;;;;9.40;4.55;;;;;;;;;;5103619;27;20077;-44
2023/08/01 01:38:54;;;;;;;6.55;3.33;;;;;;;;;;5101663;27;20068;-45
2023/08/01 01:41:19;;;;;;;11.50;4.13;;;;;;;;;;5106241;27;20023;-44
2023/08/01 01:43:44;;;;;;;12.65;4.10;;;;;;;;;;5084134;28;20078;-44
2023/08/01 01:46:10;;;;;;;8.05;3.85;;;;;;;;;;5105772;27;20496;-44
2023/08/01 01:48:35;;;;;;;7.33;3.47;;;;;;;;;;5104644;27;20040;-45
2023/08/01 01:51:00;;;;;;;8.27;3.70;;;;;;;;;;5109983;27;20115;-45
2023/08/01 01:53:25;;;;;;;10.53;3.73;;;;;;;;;;5098198;27;20311;-44
2023/08/01 01:55:51;;;;;;;10.93;4.60;;;;;;;;;;5106185;27;20369;-44
2023/08/01 01:58:16;;;;;;;11.33;4.90;;;;;;;;;;5107147;27;20277;-44
2023/08/01 02:00:41;;;;;;;8.17;4.37;;;;;;;;;;5106694;27;20019;-44
2023/08/01 02:03:10;;;;;;;8.87;4.33;;;;;;;;;;5103660;27;20273;-44
2023/08/01 02:05:35;;;;;;;8.93;3.75;;;;;;;;;;5101947;27;20282;-45
2023/08/01 02:08:00;;;;;;;10.75;4.40;;;;;;;;;;5106115;27;20451;-44
2023/08/01 02:10:26;;;;;;;9.70;4.37;;;;;;;;;;5098837;27;20462;-44
2023/08/01 02:12:51;;;;;;;8.83;4.10;;;;;;;;;;5100743;27;20282;-44
2023/08/01 02:15:16;;;;;;;10.13;3.88;;;;;;;;;;5103882;27;20050;-44
2023/08/01 02:17:41;;;;;;;8.30;4.18;;;;;;;;;;5108331;27;20126;-44
2023/08/01 02:20:07;;;;;;;7.93;3.75;;;;;;;;;;5103549;27;20032;-44
2023/08/01 02:22:32;;;;;;;10.98;4.03;;;;;;;;;;5098193;28;21521;-44
2023/08/01 02:24:57;;;;;;;10.63;4.43;;;;;;;;;;5107889;27;20039;-44
2023/08/01 02:27:23;;;;;;;10.63;3.83;;;;;;;;;;5104100;27;20063;-44
2023/08/01 02:29:50;;;;;;;9.60;4.13;;;;;;;;;;5091758;27;20044;-44
2023/08/01 02:32:15;;;;;;;10.23;5.22;;;;;;;;;;5090615;28;20031;-45
2023/08/01 02:34:41;;;;;;;5.83;3.10;;;;;;;;;;5100510;27;20019;-45
2023/08/01 02:37:06;;;;;;;11.13;3.43;;;;;;;;;;5098840;28;20300;-44
2023/08/01 02:39:34;;;;;;;6.65;3.53;;;;;;;;;;5106348;27;20353;-45
2023/08/01 02:41:59;;;;;;;9.23;4.38;;;;;;;;;;5104990;27;20127;-44
2023/08/01 02:44:24;;;;;;;9.40;3.90;;;;;;;;;;5106924;27;20169;-44
2023/08/01 02:46:49;;;;;;;12.57;3.53;;;;;;;;;;5101594;27;20277;-44
2023/08/01 02:49:15;;;;;;;7.40;3.60;;;;;;;;;;5113190;27;20273;-45
2023/08/01 02:51:40;;;;;;;10.10;3.47;;;;;;;;;;5109761;27;20254;-45
2023/08/01 02:54:05;;;;;;;7.80;3.43;;;;;;;;;;5106619;27;20369;-45
2023/08/01 02:56:30;;;;;;;8.57;3.67;;;;;;;;;;5107151;27;20276;-45
2023/08/01 02:58:57;;;;;;;8.17;3.87;;;;;;;;;;5108204;27;20348;-44
2023/08/01 03:01:22;;;;;;;9.93;3.28;;;;;;;;;;5112321;27;20485;-44
2023/08/01 03:03:47;;;;;;;6.82;3.13;;;;;;;;;;5104996;28;20053;-44
2023/08/01 03:06:14;;;;;;;5.60;3.10;;;;;;;;;;5108719;27;20081;-44
2023/08/01 03:08:39;;;;;;;7.13;3.55;;;;;;;;;;5104614;27;20790;-44
2023/08/01 03:11:05;;;;;;;9.68;3.55;;;;;;;;;;5101609;27;20028;-44
2023/08/01 03:13:30;;;;;;;9.77;3.43;;;;;;;;;;5106813;27;20504;-44
2023/08/01 03:15:58;;;;;;;10.40;3.88;;;;;;;;;;5107492;27;20023;-44
2023/08/01 03:18:23;;;;;;;8.73;3.83;;;;;;;;;;5108680;27;20020;-44
2023/08/01 03:20:51;;;;;;;9.10;3.70;;;;;;;;;;5109824;27;20034;-44
2023/08/01 03:23:16;;;;;;;7.22;3.28;;;;;;;;;;5111638;27;20024;-44
2023/08/01 03:25:42;;;;;;;7.90;4.00;;;;;;;;;;5107585;28;20430;-44
2023/08/01 03:28:07;;;;;;;9.30;3.77;;;;;;;;;;5102493;27;20027;-45
2023/08/01 03:30:32;;;;;;;6.00;3.10;;;;;;;;;;5106985;27;20819;-44
2023/08/01 03:32:58;;;;;;;8.27;3.47;;;;;;;;;;5103650;27;20157;-44
2023/08/01 03:35:23;;;;;;;2.83;1.93;;;;;;;;;;5104231;27;20031;-44
2023/08/01 03:37:49;;;;;;;7.15;3.60;;;;;;;;;;5103736;28;20262;-44
2023/08/01 03:40:14;;;;;;;7.68;3.05;;;;;;;;;;5106933;27;20019;-44
2023/08/01 03:42:40;;;;;;;6.53;3.67;;;;;;;;;;5102050;28;20039;-44
2023/08/01 03:45:06;;;;;;;8.20;4.13;;;;;;;;;;5096621;27;20031;-45
2023/08/01 03:47:31;;;;;;;8.43;3.75;;;;;;;;;;5099569;27;20023;-44
2023/08/01 03:49:57;;;;;;;7.32;3.42;;;;;;;;;;5107146;27;20031;-44
2023/08/01 03:52:22;;;;;;;6.03;2.90;;;;;;;;;;5105179;28;20072;-44
2023/08/01 03:54:48;;;;;;;5.43;2.80;;;;;;;;;;5107671;27;20068;-44
2023/08/01 03:57:13;;;;;;;11.25;3.22;;;;;;;;;;5108794;28;20262;-44
2023/08/01 03:59:40;;;;;;;5.20;3.23;;;;;;;;;;5098369;28;20092;-44
2023/08/01 04:02:05;;;;;;;6.90;4.03;;;;;;;;;;5108547;27;20265;-44
2023/08/01 04:04:31;;;;;;;12.63;2.90;;;;;;;;;;5107624;27;20031;-45
2023/08/01 04:06:56;;;;;;;8.45;2.90;;;;;;;;;;5107144;28;20587;-44
2023/08/01 04:09:21;;;;;;;7.50;3.00;;;;;;;;;;5107613;28;20430;-44
2023/08/01 04:11:47;;;;;;;5.50;3.33;;;;;;;;;;5109562;28;20031;-44
2023/08/01 04:14:12;;;;;;;5.33;2.73;;;;;;;;;;5104403;28;20504;-44
2023/08/01 04:16:37;;;;;;;5.47;3.30;;;;;;;;;;5104353;28;20055;-45
2023/08/01 04:19:02;;;;;;;7.83;3.70;;;;;;;;;;5106425;28;20035;-46
2023/08/01 04:21:28;;;;;;;9.20;3.40;;;;;;;;;;5106141;28;20031;-45
2023/08/01 04:23:53;;;;;;;3.23;1.83;;;;;;;;;;5108490;28;20250;-45
2023/08/01 04:26:18;;;;;;;7.03;3.53;;;;;;;;;;5108734;28;20292;-44
2023/08/01 04:28:45;;;;;;;6.60;3.25;;;;;;;;;;5112719;27;20034;-44
2023/08/01 04:31:10;;;;;;;6.00;3.15;;;;;;;;;;5106298;27;20059;-44
2023/08/01 04:33:36;;;;;;;8.87;3.20;;;;;;;;;;5109112;28;20547;-45
2023/08/01 04:36:01;;;;;;;7.17;3.07;;;;;;;;;;5110331;27;20281;-46
2023/08/01 04:38:27;;;;;;;9.25;4.70;;;;;;;;;;5110251;27;20261;-44
2023/08/01 04:40:52;;;;;;;6.05;3.42;;;;;;;;;;5107679;27;20091;-46
2023/08/01 04:43:17;;;;;;;7.10;3.53;;;;;;;;;;5088993;28;20023;-45
2023/08/01 04:45:42;;;;;;;8.57;3.83;;;;;;;;;;5105461;27;20058;-44
2023/08/01 04:48:08;;;;;;;6.90;3.63;;;;;;;;;;5098925;27;20406;-45
2023/08/01 04:50:33;;;;;;;7.70;3.50;;;;;;;;;;5107819;27;20023;-45
2023/08/01 04:52:58;;;;;;;7.10;3.07;;;;;;;;;;5100811;27;20042;-45
2023/08/01 04:55:23;;;;;;;8.73;3.97;;;;;;;;;;5100076;27;20035;-44
2023/08/01 04:57:49;;;;;;;8.13;3.13;;;;;;;;;;5107188;27;20115;-46
2023/08/01 05:00:15;;;;;;;9.30;3.80;;;;;;;;;;5105434;27;20277;-45
2023/08/01 05:02:40;;;;;;;6.28;2.35;;;;;;;;;;5094026;27;20269;-46
2023/08/01 05:05:06;;;;;;;6.50;3.03;;;;;;;;;;5105434;27;20032;-44
2023/08/01 05:07:31;;;;;;;6.60;3.70;;;;;;;;;;5106513;27;20273;-44
2023/08/01 05:09:56;;;;;;;7.60;3.70;;;;;;;;;;5110174;27;20043;-45
2023/08/01 05:12:22;;;;;;;5.50;3.03;;;;;;;;;;5107768;27;20281;-46
2023/08/01 05:14:47;;;;;;;6.10;3.50;;;;;;;;;;5108537;27;20028;-45
2023/08/01 05:17:12;;;;;;;10.50;3.33;;;;;;;;;;5109179;27;20060;-44
2023/08/01 05:19:37;;;;;;;7.47;3.63;;;;;;;;;;5098829;27;20326;-45
2023/08/01 05:22:03;;;;;;;12.70;6.73;;;;;;;;;;5109710;27;20015;-46
2023/08/01 05:24:28;;;;;;;6.65;3.88;;;;;;;;;;5107537;27;20326;-44
2023/08/01 05:26:53;;;;;;;8.90;3.37;;;;;;;;;;5109693;27;20481;-44
2023/08/01 05:29:19;;;;;;;8.57;3.30;;;;;;;;;;5107783;27;20274;-44
2023/08/01 05:31:44;;;;;;;8.53;4.03;;;;;;;;;;5101483;27;20065;-44
2023/08/01 05:34:09;;;;;;;8.90;2.87;;;;;;;;;;5107124;27;20308;-44
2023/08/01 05:36:35;;;;;;;6.60;3.07;;;;;;;;;;5100705;27;20142;-44
2023/08/01 05:39:00;;;;;;;8.82;3.58;;;;;;;;;;5104116;28;20639;-45
2023/08/01 05:41:26;;;;;;;6.07;3.20;;;;;;;;;;5102805;27;20023;-44
2023/08/01 05:43:51;;;;;;;7.65;3.15;;;;;;;;;;5100375;27;20280;-44
2023/08/01 05:46:17;;;;;;;6.10;3.00;;;;;;;;;;5081058;27;20024;-44
2023/08/01 05:48:42;;;;;;;6.57;2.80;;;;;;;;;;5108470;27;20028;-45
2023/08/01 05:51:07;;;;;;;9.87;3.33;;;;;;;;;;5108069;27;20032;-44
2023/08/01 05:53:32;;;;;;;5.40;2.73;;;;;;;;;;5104511;27;20293;-47
2023/08/01 05:55:58;;;;;;;5.20;2.65;;;;;;;;;;5107522;27;20276;-45
2023/08/01 05:58:23;;;;;;;5.33;2.60;;;;;;;;;;5103688;28;20682;-44
2023/08/01 06:00:48;;;;;;;7.18;3.75;;;;;;;;;;5100729;27;20326;-45
2023/08/01 06:03:14;;;;;;;5.50;3.05;;;;;;;;;;5107207;27;20068;-46
2023/08/01 06:05:39;;;;;;;7.80;3.00;;;;;;;;;;5106249;27;20065;-45
2023/08/01 06:08:05;;;;;;;5.43;2.97;;;;;;;;;;5103585;27;20268;-45
2023/08/01 06:10:31;;;;;;;4.72;2.90;;;;;;;;;;5105422;27;20882;-44
2023/08/01 06:12:56;;;;;;;6.80;2.97;;;;;;;;;;5109633;27;20019;-45
2023/08/01 06:15:22;;;;;;;8.33;2.93;;;;;;;;;;5106784;27;20326;-45
2023/08/01 06:17:47;;;;;;;6.32;2.92;;;;;;;;;;5097271;27;20031;-45
2023/08/01 06:20:12;;;;;;;6.35;3.20;;;;;;;;;;5098739;27;20035;-45
2023/08/01 06:22:38;;;;;;;5.72;2.60;;;;;;;;;;5106040;27;20424;-45
2023/08/01 06:25:03;;;;;;;4.13;2.13;;;;;;;;;;5107316;27;20024;-45
2023/08/01 06:27:29;;;;;;;5.15;2.65;;;;;;;;;;5083926;27;20362;-45
2023/08/01 06:29:54;;;;;;;8.27;3.03;;;;;;;;;;5107505;27;20110;-45
2023/08/01 06:32:19;;;;;;;6.93;3.28;;;;;;;;;;5092086;27;20284;-45
2023/08/01 06:34:44;;;;;;;8.50;2.87;;;;;;;;;;5103596;27;20030;-45
2023/08/01 06:37:10;;;;;;;5.95;2.45;;;;;;;;;;5100437;27;20346;-45
2023/08/01 06:39:35;;;;;;;7.90;3.17;;;;;;;;;;5106347;27;20011;-45
2023/08/01 06:42:00;;;;;;;5.72;2.50;;;;;;;;;;5094697;27;20277;-45
2023/08/01 06:44:26;;;;;;;9.50;3.43;;;;;;;;;;5089063;27;20055;-45
2023/08/01 06:46:51;;;;;;;6.70;3.30;;;;;;;;;;5087038;27;20280;-45
2023/08/01 06:49:16;;;;;;;6.80;2.13;;;;;;;;;;5088701;27;20079;-45
2023/08/01 06:51:42;;;;;;;5.55;2.72;;;;;;;;;;5095610;27;20042;-45
2023/08/01 06:54:08;;;;;;;4.32;2.25;;;;;;;;;;5097203;27;20028;-45
2023/08/01 06:56:33;;;;;;;6.97;2.92;;;;;;;;;;5089999;27;20066;-45
2023/08/01 06:58:59;;;;;;;4.85;1.30;;;;;;;;;;5099004;28;20041;-46
2023/08/01 07:01:25;;;;;;;4.50;2.40;;;;;;;;;;5091679;27;20027;-44
2023/08/01 07:03:52;;;;;;;8.13;2.83;;;;;;;;;;5103690;28;20016;-45
2023/08/01 07:06:17;;;;;;;5.47;3.03;;;;;;;;;;5097608;27;20028;-45
2023/08/01 07:08:42;;;;;;;16.95;10.48;;;;;;;;;;5100283;27;20054;-45
2023/08/01 07:11:07;;;;;;;5.47;2.70;;;;;;;;;;5106429;27;20432;-45
2023/08/01 07:13:33;;;;;;;7.88;3.42;;;;;;;;;;5094789;27;20047;-45
2023/08/01 07:15:58;;;;;;;8.15;3.85;;;;;;;;;;5105912;27;20019;-45
2023/08/01 07:18:23;;;;;;;9.40;5.63;;;;;;;;;;5108553;27;20031;-45
2023/08/01 07:20:58;;;;;;;6.67;3.13;;;;;;;;;;5108687;27;20285;-45
2023/08/01 07:23:26;;;;;;;6.20;3.42;;;;;;;;;;5113141;27;20303;-45
2023/08/01 07:25:51;;;;;;;3.35;2.45;;;;;;;;;;5108217;27;20016;-45
2023/08/01 07:28:16;;;;;;;5.80;2.83;;;;;;;;;;5107825;27;20031;-45
2023/08/01 07:30:41;;;;;;;5.73;3.00;;;;;;;;;;5095547;27;20445;-45
2023/08/01 07:33:07;;;;;;;4.07;2.30;;;;;;;;;;5109796;27;20064;-45
2023/08/01 07:35:32;;;;;;;4.60;2.40;;;;;;;;;;5095107;27;20023;-45
2023/08/01 07:37:57;;;;;;;4.95;2.53;;;;;;;;;;5100700;27;20523;-45
2023/08/01 07:40:25;;;;;;;6.70;2.53;;;;;;;;;;5087878;27;20051;-45
2023/08/01 07:42:50;;;;;;;6.18;3.15;;;;;;;;;;5098137;27;20736;-45
2023/08/01 07:45:19;;;;;;;4.65;2.72;;;;;;;;;;5099349;27;20061;-44
2023/08/01 07:47:44;;;;;;;9.55;2.60;;;;;;;;;;5100485;27;20107;-45
2023/08/01 07:50:09;;;;;;;13.57;6.55;;;;;;;;;;5104115;27;20509;-45
2023/08/01 07:52:35;;;;;;;7.82;3.42;;;;;;;;;;5100470;27;20065;-45
2023/08/01 07:55:00;;;;;;;4.80;2.67;;;;;;;;;;5093967;27;20026;-45
2023/08/01 07:57:25;;;;;;;6.77;2.90;;;;;;;;;;5100158;27;20745;-45
2023/08/01 07:59:50;;;;;;;5.23;2.63;;;;;;;;;;5102046;27;20265;-45
2023/08/01 08:02:16;;;;;;;6.05;2.30;;;;;;;;;;5093128;27;20281;-45
2023/08/01 08:04:41;;;;;;;4.53;2.67;;;;;;;;;;5104948;28;20039;-45
2023/08/01 08:07:06;;;;;;;7.03;2.93;;;;;;;;;;5107512;28;20353;-45
2023/08/01 08:09:31;;;;;;;5.07;2.57;;;;;;;;;;5100557;28;20285;-45
2023/08/01 08:12:02;;;;;;;7.67;2.97;;;;;;;;;;5107605;28;20261;-45
2023/08/01 08:14:27;;;;;;;8.32;2.63;;;;;;;;;;5108482;28;20796;-45
2023/08/01 08:16:52;;;;;;;5.60;2.33;;;;;;;;;;5108383;28;20020;-45
2023/08/01 08:19:18;;;;;;;5.10;2.30;;;;;;;;;;5097610;28;20269;-45
2023/08/01 08:21:43;;;;;;;9.10;2.43;;;;;;;;;;5095800;28;20012;-45
2023/08/01 08:24:08;;;;;;;6.83;3.60;;;;;;;;;;5094056;28;21163;-45
2023/08/01 08:26:37;;;;;;;6.57;3.00;;;;;;;;;;5105749;28;20110;-45
2023/08/01 08:29:02;;;;;;;5.10;2.38;;;;;;;;;;5106560;28;20314;-45
2023/08/01 08:31:27;;;;;;;6.15;2.47;;;;;;;;;;5110576;28;20031;-45
2023/08/01 08:33:53;;;;;;;5.20;3.07;;;;;;;;;;5085746;28;20435;-45
2023/08/01 08:36:18;;;;;;;10.33;4.77;;;;;;;;;;5104134;28;20277;-45
2023/08/01 08:38:43;;;;;;;6.80;3.23;;;;;;;;;;5107670;28;20833;-45
2023/08/01 08:41:10;;;;;;;5.83;2.77;;;;;;;;;;5098842;28;20284;-45
2023/08/01 08:43:38;;;;;;;4.22;2.50;;;;;;;;;;5102223;28;20023;-45
2023/08/01 08:46:04;;;;;;;7.15;2.42;;;;;;;;;;5097311;27;20028;-45
2023/08/01 08:48:29;;;;;;;13.52;7.47;;;;;;;;;;5110510;28;20023;-45
2023/08/01 08:50:59;;;;;;;6.03;3.25;;;;;;;;;;5106269;28;20366;-45
2023/08/01 08:53:25;;;;;;;4.65;2.50;;;;;;;;;;5096137;28;20035;-45
2023/08/01 08:55:50;;;;;;;5.70;2.67;;;;;;;;;;5101832;28;20046;-45
2023/08/01 08:58:16;;;;;;;7.10;3.27;;;;;;;;;;5108546;28;20063;-45
2023/08/01 09:00:41;;;;;;;7.63;2.50;;;;;;;;;;5109003;28;20019;-45
2023/08/01 09:03:07;;;;;;;4.30;2.20;;;;;;;;;;5100126;28;20432;-45
2023/08/01 09:05:40;;;;;;;14.97;6.33;;;;;;;;;;5104275;28;20031;-45
2023/08/01 09:08:07;;;;;;;6.68;2.42;;;;;;;;;;5107829;28;20024;-45
2023/08/01 09:10:32;;;;;;;6.22;2.60;;;;;;;;;;5106644;28;20463;-45
2023/08/01 09:12:57;;;;;;;4.00;2.25;;;;;;;;;;5100928;28;20058;-45
2023/08/01 09:15:28;;;;;;;4.70;2.20;;;;;;;;;;5108072;28;20111;-45
2023/08/01 09:17:56;;;;;;;3.95;2.22;;;;;;;;;;5108351;27;20279;-45
2023/08/01 09:20:21;;;;;;;4.47;2.30;;;;;;;;;;5111368;27;20020;-45
2023/08/01 09:22:47;;;;;;;5.17;2.33;;;;;;;;;;5098940;27;20107;-45
2023/08/01 09:25:13;;;;;;;6.00;2.03;;;;;;;;;;5106090;27;20456;-45
2023/08/01 09:27:38;;;;;;;2.88;1.65;;;;;;;;;;5106430;27;20422;-45
2023/08/01 09:30:07;;;;;;;3.45;2.03;;;;;;;;;;5102345;27;20550;-45
2023/08/01 09:32:33;;;;;;;9.40;5.18;;;;;;;;;;5108564;27;20048;-45
2023/08/01 09:35:03;;;;;;;4.65;2.17;;;;;;;;;;5096186;27;20066;-45
2023/08/01 09:37:37;;;;;;;4.15;2.55;;;;;;;;;;5103993;27;20072;-45
2023/08/01 09:40:03;;;;;;;3.78;2.03;;;;;;;;;;5108023;28;20369;-45
2023/08/01 09:42:37;;;;;;;4.88;2.10;;;;;;;;;;5106429;27;20028;-45
2023/08/01 09:45:05;;;;;;;3.47;1.77;;;;;;;;;;5104223;27;20030;-45
2023/08/01 09:47:36;;;;;;;3.38;1.83;;;;;;;;;;5109840;27;20096;-45
2023/08/01 09:50:01;;;;;;;3.42;1.60;;;;;;;;;;5096321;27;20072;-45
2023/08/01 09:52:29;;;;;;;3.23;1.27;;;;;;;;;;5107365;27;20032;-46
2023/08/01 09:54:55;;;;;;;3.83;1.88;;;;;;;;;;5106432;28;20652;-45
2023/08/01 09:57:21;;;;;;;3.47;2.10;;;;;;;;;;5109139;27;20473;-45
2023/08/01 09:59:47;;;;;;;3.83;1.67;;;;;;;;;;5106730;27;20012;-45
2023/08/01 10:02:14;;;;;;;3.95;1.90;;;;;;;;;;5104484;27;20505;-45
2023/08/01 10:04:40;;;;;;;4.40;1.77;;;;;;;;;;5100818;27;20035;-45
2023/08/01 10:07:14;;;;;;;3.70;1.40;;;;;;;;;;5107416;27;20024;-45
2023/08/01 10:09:40;;;;;;;3.67;1.50;;;;;;;;;;5096593;27;20513;-45
2023/08/01 10:12:06;;;;;;;2.80;1.73;;;;;;;;;;5107721;27;20019;-45
2023/08/01 10:14:32;;;;;;;1.90;1.17;;;;;;;;;;5099204;27;20030;-45
2023/08/01 10:16:59;;;;;;;12.05;3.42;;;;;;;;;;5104183;27;20020;-45
2023/08/01 10:19:26;;;;;;;8.25;3.13;;;;;;;;;;5093020;27;20482;-45
2023/08/01 10:21:51;;;;;;;4.35;2.17;;;;;;;;;;5101842;27;20085;-45
2023/08/01 10:24:17;;;;;;;7.65;2.58;;;;;;;;;;5093700;27;20031;-45
2023/08/01 10:26:44;;;;;;;2.90;1.67;;;;;;;;;;5090827;27;20098;-46
2023/08/01 10:29:09;;;;;;;5.85;1.67;;;;;;;;;;5101504;27;20042;-46
2023/08/01 10:31:35;;;;;;;10.90;3.50;;;;;;;;;;5102150;27;21651;-46
2023/08/01 10:34:04;;;;;;;5.50;1.92;;;;;;;;;;5100815;28;20035;-46
2023/08/01 10:36:31;;;;;;;3.38;1.42;;;;;;;;;;5077408;28;20020;-45
2023/08/01 10:38:57;;;;;;;4.35;1.77;;;;;;;;;;5101521;27;20031;-46
2023/08/01 10:41:40;;;;;;;3.17;1.50;;;;;;;;;;5101713;27;20069;-45
2023/08/01 10:44:05;;;;;;;3.22;1.50;;;;;;;;;;5103066;27;20072;-45
2023/08/01 10:46:51;;;;;;;4.57;1.70;;;;;;;;;;5102464;27;20839;-45
2023/08/01 10:49:17;;;;;;;4.15;1.63;;;;;;;;;;5091732;27;20032;-46
2023/08/01 10:51:42;;;;;;;3.15;1.60;;;;;;;;;;5104021;27;20378;-45
2023/08/01 10:54:23;;;;;;;3.45;1.30;;;;;;;;;;5096209;27;20107;-45
2023/08/01 10:56:50;;;;;;;4.00;2.17;;;;;;;;;;5101297;27;20026;-45
2023/08/01 10:59:15;;;;;;;3.75;1.30;;;;;;;;;;5102850;27;20026;-45
2023/08/01 11:01:48;;;;;;;4.18;1.42;;;;;;;;;;5105211;27;20094;-45
2023/08/01 11:04:14;;;;;;;2.97;1.77;;;;;;;;;;5102642;27;20051;-44
2023/08/01 11:06:46;;;;;;;3.17;1.35;;;;;;;;;;5097189;27;20032;-45
2023/08/01 11:09:32;;;;;;;3.97;1.30;;;;;;;;;;5085423;28;20030;-45
2023/08/01 11:11:58;;;;;;;2.83;1.50;;;;;;;;;;5100105;27;20036;-45
2023/08/01 11:14:25;;;;;;;3.70;1.25;;;;;;;;;;5097155;27;20028;-45
2023/08/01 11:16:51;;;;;;;2.90;1.42;;;;;;;;;;5111528;27;20106;-46
2023/08/01 11:19:20;;;;;;;3.72;1.45;;;;;;;;;;5097454;27;20115;-46
2023/08/01 11:21:45;;;;;;;2.83;1.23;;;;;;;;;;5100725;27;20043;-45
2023/08/01 11:24:10;;;;;;;2.67;1.02;;;;;;;;;;5096493;27;20176;-45
2023/08/01 11:26:36;;;;;;;3.30;1.53;;;;;;;;;;5100347;27;20059;-45
2023/08/01 11:29:03;;;;;;;3.88;1.52;;;;;;;;;;5109705;27;20772;-45
2023/08/01 11:31:28;;;;;;;2.30;1.27;;;;;;;;;;5107303;27;20029;-45
2023/08/01 11:33:57;;;;;;;4.28;1.58;;;;;;;;;;5109240;27;20031;-45
2023/08/01 11:36:24;;;;;;;2.40;1.52;;;;;;;;;;5105521;27;20102;-45
2023/08/01 11:38:49;;;;;;;4.90;1.40;;;;;;;;;;5105465;28;20039;-45
2023/08/01 11:41:15;;;;;;;2.47;1.33;;;;;;;;;;5109447;27;20107;-45
2023/08/01 11:43:41;;;;;;;1.52;0.90;;;;;;;;;;5103465;27;20311;-45
2023/08/01 11:46:06;;;;;;;2.65;1.27;;;;;;;;;;5096916;28;20016;-45
2023/08/01 11:48:31;;;;;;;2.78;1.33;;;;;;;;;;5106259;28;20458;-45
2023/08/01 11:51:00;;;;;;;2.90;1.07;;;;;;;;;;5104005;27;20045;-45
2023/08/01 11:53:26;;;;;;;2.10;1.33;;;;;;;;;;5107788;27;20804;-45
2023/08/01 11:55:56;;;;;;;1.63;0.60;;;;;;;;;;5102151;27;20031;-45
2023/08/01 11:58:31;;;;;;;3.60;0.75;;;;;;;;;;5106864;28;20414;-45
2023/08/01 12:01:03;;;;;;;2.75;0.75;;;;;;;;;;5099538;28;20061;-46
2023/08/01 12:03:29;;;;;;;2.72;1.77;;;;;;;;;;5108379;27;20023;-45
2023/08/01 12:06:02;;;;;;;4.00;0.63;;;;;;;;;;5108153;27;20024;-46
2023/08/01 12:08:32;;;;;;;4.30;0.82;;;;;;;;;;5104415;28;20012;-45
2023/08/01 12:10:57;;;;;;;1.85;0.77;;;;;;;;;;5093743;28;20816;-46
2023/08/01 12:13:23;;;;;;;4.67;0.90;;;;;;;;;;5110171;28;20056;-45
2023/08/01 12:15:49;;;;;;;2.28;0.43;;;;;;;;;;5103386;28;20284;-45
2023/08/01 12:18:24;;;;;;;1.23;0.50;;;;;;;;;;5103292;28;20732;-45
2023/08/01 12:20:49;;;;;;;1.38;0.40;;;;;;;;;;5103137;28;20024;-45
2023/08/01 12:23:14;;;;;;;2.73;0.80;;;;;;;;;;5106982;28;20027;-45
2023/08/01 12:25:39;;;;;;;1.10;0.43;;;;;;;;;;5107669;28;20647;-45
2023/08/01 12:28:05;;;;;;;1.67;0.50;;;;;;;;;;5084298;28;20118;-45
2023/08/01 12:30:30;;;;;;;0.90;0.50;;;;;;;;;;5102010;28;20040;-45
2023/08/01 12:32:55;;;;;;;0.60;0.38;;;;;;;;;;5095056;28;20036;-45
2023/08/01 12:35:21;;;;;;;1.07;0.30;;;;;;;;;;5109188;28;20491;-45
2023/08/01 12:37:46;;;;;;;1.00;0.40;;;;;;;;;;5093362;28;20147;-45
2023/08/01 12:40:11;;;;;;;2.20;0.80;;;;;;;;;;5097312;28;20064;-46
2023/08/01 12:42:36;;;;;;;0.47;0.40;;;;;;;;;;5105968;28;20023;-45
2023/08/01 12:45:02;;;;;;;1.53;0.30;;;;;;;;;;5088733;28;20035;-45
2023/08/01 12:47:27;;;;;;;1.35;0.35;;;;;;;;;;5088456;28;20032;-45
2023/08/01 12:49:54;;;;;;;1.03;0.50;;;;;;;;;;5103585;27;20028;-45
2023/08/01 12:52:24;;;;;;;1.95;0.65;;;;;;;;;;5103637;27;20763;-45
2023/08/01 12:54:49;;;;;;;4.63;1.48;;;;;;;;;;5106112;27;20058;-45
2023/08/01 12:57:15;;;;;;;2.63;1.00;;;;;;;;;;5106458;27;20550;-45
2023/08/01 12:59:40;;;;;;;2.63;1.07;;;;;;;;;;5107401;27;20038;-45
2023/08/01 13:02:08;;;;;;;2.63;1.40;;;;;;;;;;5109026;27;20269;-45
2023/08/01 13:04:33;;;;;;;3.90;1.15;;;;;;;;;;5106401;27;20076;-45
2023/08/01 13:07:06;;;;;;;4.03;1.70;;;;;;;;;;5109243;27;20028;-45
2023/08/01 13:09:31;;;;;;;5.05;2.08;;;;;;;;;;5105961;27;20133;-46
2023/08/01 13:11:57;;;;;;;4.77;1.80;;;;;;;;;;5109849;27;20032;-45
2023/08/01 13:14:23;;;;;;;4.97;2.10;;;;;;;;;;5090739;27;20088;-45
2023/08/01 13:16:49;;;;;;;4.72;2.40;;;;;;;;;;5110773;27;20290;-45
2023/08/01 13:19:14;;;;;;;4.57;2.33;;;;;;;;;;5109421;27;20011;-45
2023/08/01 13:21:40;;;;;;;5.47;2.33;;;;;;;;;;5104434;27;20023;-45
2023/08/01 13:24:05;;;;;;;5.30;3.38;;;;;;;;;;5115385;27;20027;-45
2023/08/01 13:26:31;;;;;;;4.47;2.43;;;;;;;;;;5112515;27;20027;-45
2023/08/01 13:28:56;;;;;;;4.32;2.40;;;;;;;;;;5107565;27;20284;-45
2023/08/01 13:31:22;;;;;;;3.53;1.58;;;;;;;;;;5108976;27;20047;-45
2023/08/01 13:33:47;;;;;;;4.07;2.43;;;;;;;;;;5112686;27;20224;-45
2023/08/01 13:36:13;;;;;;;5.13;2.73;;;;;;;;;;5103116;27;20270;-45
2023/08/01 13:38:38;;;;;;;4.97;2.80;;;;;;;;;;5105226;27;24328;-45
2023/08/01 13:41:03;;;;;;;5.77;2.17;;;;;;;;;;5108933;27;20025;-45
2023/08/01 13:43:28;;;;;;;5.47;3.08;;;;;;;;;;5111065;27;20281;-45
2023/08/01 13:45:54;;;;;;;3.90;2.43;;;;;;;;;;5106067;27;20690;-46
2023/08/01 13:48:19;;;;;;;4.80;2.40;;;;;;;;;;5103400;27;20295;-45
2023/08/01 13:50:44;;;;;;;4.37;2.50;;;;;;;;;;5106782;27;20624;-46
2023/08/01 13:53:13;;;;;;;5.10;2.37;;;;;;;;;;5109207;27;20019;-45
2023/08/01 13:55:38;;;;;;;4.60;2.03;;;;;;;;;;5112600;27;20039;-45
2023/08/01 13:58:04;;;;;;;5.03;2.58;;;;;;;;;;5108456;27;20042;-45
2023/08/01 14:00:29;;;;;;;4.60;2.63;;;;;;;;;;5111052;27;20036;-45
2023/08/01 14:02:55;;;;;;;4.57;2.20;;;;;;;;;;5112113;27;20428;-45
2023/08/01 14:05:21;;;;;;;3.80;2.20;;;;;;;;;;5103212;27;20348;-45
2023/08/01 14:07:46;;;;;;;5.00;2.23;;;;;;;;;;5091817;28;20099;-45
2023/08/01 14:10:11;;;;;;;5.55;2.30;;;;;;;;;;5085288;27;20031;-46
2023/08/01 14:12:36;;;;;;;4.80;2.50;;;;;;;;;;5096761;27;20077;-45
2023/08/01 14:15:02;;;;;;;6.03;2.43;;;;;;;;;;5108094;27;20024;-46
2023/08/01 14:17:27;;;;;;;6.10;2.75;;;;;;;;;;5104507;27;20047;-45
2023/08/01 14:19:53;;;;;;;7.10;3.00;;;;;;;;;;5110801;27;20099;-46
2023/08/01 14:22:18;;;;;;;7.80;2.72;;;;;;;;;;5110159;27;20092;-45
2023/08/01 14:24:43;;;;;;;6.03;3.17;;;;;;;;;;5111821;27;20050;-45
2023/08/01 14:27:09;;;;;;;6.32;2.65;;;;;;;;;;5110004;27;20028;-45
2023/08/01 14:29:34;;;;;;;3.97;2.35;;;;;;;;;;5109757;27;20496;-45
2023/08/01 14:31:59;;;;;;;5.67;2.80;;;;;;;;;;5106087;27;20084;-45
2023/08/01 14:34:24;;;;;;;4.57;2.27;;;;;;;;;;5102374;28;20027;-45
2023/08/01 14:36:50;;;;;;;4.67;2.40;;;;;;;;;;5101501;27;20027;-45